Terminal Aerodrome Forecast
Issued by NWS Twin Cities, MN

Home | Current Version | Previous Version | Graphics & Text | Print | Product List | Glossary On
Versions: 1 2 3 4 5 6 7 8 9 10 11 12 13 14 15 16 17 18 19 20 21 22 23 24
100
FTUS43 KMPX 090245 AAA
TAFMSP
TAF AMD
KMSP 090245Z 0903/1006 32017G25KT P6SM SCT020 OVC025
      TEMPO 0903/0905 5SM -SN OVC030
     FM091000 32016G24KT P6SM SCT025 BKN050
     FM091400 32014G24KT P6SM SCT030
     FM092200 32013G21KT P6SM SKC=

USA.gov is the U.S. government's official web portal to all federal, state and local government web resources and services.